Caraibes II F/v — FJXR — position and weather

sailwx.info

Track history (hours):
 
Tides and Currents Weather Stations Pressure Air Temp Water Temp Dewpoint Dewpoint Depression Visibility Wind Speed Wind Dir Waves Ship Positions

Caraibes II F/v

Last reported at 2018-Jun-25 13:57 UTC. Time now 2018-Jun-25 14:15 UTC.
Position N 47°25' W 003°47'.

Length 15 m.

Type: Fishing. MMSI: 228087900.

Date/timePositionNaut miles runAvg speedWind from/ knotsBaromVisibWave heightAir tempDewpointWater temp
2018-Jun-25 13:57N 47°25' W 003°47'2 3.2
2018-Jun-25 13:22N 47°26' W 003°48'1 3.2
2018-Jun-25 13:01N 47°26' W 003°47'2 3.4
2018-Jun-25 12:31N 47°26' W 003°44'1 2.5
2018-Jun-25 12:00N 47°25' W 003°43'1 3.0
2018-Jun-25 11:30N 47°26' W 003°44'2 3.5
2018-Jun-25 10:50N 47°26' W 003°48'1 3.4
2018-Jun-25 10:27N 47°26' W 003°50'1 3.2
2018-Jun-25 10:01N 47°25' W 003°49'2 3.5
2018-Jun-25 09:30N 47°25' W 003°46'2 3.5
2018-Jun-25 08:59N 47°25' W 003°43'1 3.0
2018-Jun-25 08:30N 47°26' W 003°45'1 2.7
2018-Jun-25 07:58N 47°26' W 003°47'2 3.3
2018-Jun-25 07:30N 47°27' W 003°49'1 2.4
2018-Jun-25 06:53N 47°28' W 003°51'2 3.7
2018-Jun-25 06:28N 47°29' W 003°49'2 3.6
2018-Jun-25 05:59N 47°31' W 003°48'1 2.9
2018-Jun-25 05:31N 47°32' W 003°47'2 3.6
2018-Jun-25 05:01N 47°33' W 003°46'2 3.5
2018-Jun-25 04:30N 47°34' W 003°43'2 3.4
2018-Jun-25 04:00N 47°35' W 003°42'2 3.8
2018-Jun-25 03:30N 47°37' W 003°43'4 7.9
2018-Jun-25 03:00N 47°39' W 003°48'4 8.3
2018-Jun-25 02:30N 47°41' W 003°53'4 8.5
2018-Jun-25 02:00N 47°45' W 003°57'4 8.6
2018-Jun-25 01:30N 47°48' W 004°02'5 0.1
2018-Jun-22 23:48N 47°51' W 003°56'1 1.0
2018-Jun-22 22:48N 47°50' W 003°56'10 8.5
2018-Jun-22 21:35N 47°42' W 003°47'1 8.3
2018-Jun-22 21:30N 47°41' W 003°47'4 8.3
2018-Jun-22 21:00N 47°38' W 003°43'2 4.0
2018-Jun-22 20:30N 47°36' W 003°42'2 3.6
2018-Jun-22 20:00N 47°34' W 003°42'2 3.6
2018-Jun-22 19:30N 47°34' W 003°45'1 2.9
2018-Jun-22 19:00N 47°32' W 003°46'2 3.4
2018-Jun-22 18:30N 47°31' W 003°47'2 3.3
2018-Jun-22 17:59N 47°30' W 003°49'2 3.5
2018-Jun-22 17:28N 47°29' W 003°51'2 3.3
2018-Jun-22 16:56N 47°28' W 003°49'1 3.0
2018-Jun-22 16:30N 47°29' W 003°48'2 2.8
2018-Jun-22 15:53N 47°29' W 003°51'1 2.8
2018-Jun-22 15:30N 47°28' W 003°50'2 3.4
2018-Jun-22 15:00N 47°28' W 003°48'1 2.9
2018-Jun-22 14:30N 47°29' W 003°49'2 2.9
2018-Jun-22 13:53N 47°28' W 003°51'1 3.4
2018-Jun-22 13:28N 47°27' W 003°52'3 0.6
2018-Jun-22 08:26N 47°24' W 003°53'1 2.5
2018-Jun-22 07:51N 47°25' W 003°52'1 2.9
2018-Jun-22 07:30N 47°26' W 003°51'2 3.3
2018-Jun-22 06:59N 47°27' W 003°53'2 3.3
2018-Jun-22 06:30N 47°29' W 003°54'2 3.3
2018-Jun-22 05:55N 47°30' W 003°56'1 3.2
2018-Jun-22 05:29N 47°31' W 003°58'1 3.1
2018-Jun-22 05:00N 47°32' W 003°60'4 3.3
2018-Jun-22 03:48N 47°35' W 004°03'8 8.0
2018-Jun-22 02:48N 47°41' W 004°11'8 7.9
2018-Jun-22 01:48N 47°47' W 004°17'23 3.8
2018-Jun-21 19:47N 47°30' W 003°55'3 3.2
2018-Jun-21 18:43N 47°27' W 003°51'1 3.6
2018-Jun-21 18:26N 47°26' W 003°51'1 3.4
2018-Jun-21 18:00N 47°25' W 003°50'2 3.4
2018-Jun-21 17:30N 47°24' W 003°49'1 1.8
2018-Jun-21 16:59N 47°23' W 003°49'2 3.4
2018-Jun-21 16:21N 47°23' W 003°53'2 1.5
2018-Jun-21 14:54N 47°25' W 003°52'1 0.4
2018-Jun-21 11:24N 47°24' W 003°51'1 3.4
2018-Jun-21 10:59N 47°25' W 003°52'2 3.1
2018-Jun-21 10:27N 47°26' W 003°53'2 3.3
2018-Jun-21 09:59N 47°25' W 003°55'2 3.4
2018-Jun-21 09:29N 47°23' W 003°54'2 3.2
2018-Jun-21 08:50N 47°22' W 003°57'2 3.0
2018-Jun-21 08:20N 47°20' W 003°58'1 2.3
2018-Jun-21 08:00N 47°20' W 003°58'2 3.4
2018-Jun-21 07:30N 47°18' W 003°58'2 2.6
2018-Jun-21 06:42N 47°18' W 003°55'1 3.3
2018-Jun-21 06:28N 47°19' W 003°55'2 3.3
2018-Jun-21 05:52N 47°21' W 003°55'1 3.4
2018-Jun-21 05:29N 47°22' W 003°55'2 3.4
2018-Jun-21 05:00N 47°24' W 003°55'2 3.5
2018-Jun-21 04:30N 47°25' W 003°55'2 3.5
2018-Jun-21 03:58N 47°27' W 003°54'2 3.6
2018-Jun-21 03:30N 47°28' W 003°52'1 2.1
2018-Jun-21 02:53N 47°29' W 003°51'1 3.3
2018-Jun-21 02:29N 47°30' W 003°53'2 3.4
2018-Jun-21 01:58N 47°31' W 003°56'2 3.3
2018-Jun-21 01:30N 47°31' W 003°58'2 3.3
2018-Jun-21 00:46N 47°31' W 004°01'1 3.3
2018-Jun-21 00:29N 47°31' W 004°03'2 3.4
2018-Jun-21 00:00N 47°31' W 004°05'1 2.9
2018-Jun-20 23:30N 47°29' W 004°04'2 3.3
2018-Jun-20 23:00N 47°29' W 004°02'2 3.3
2018-Jun-20 22:30N 47°30' W 003°60'2 3.4
2018-Jun-20 22:00N 47°31' W 003°58'1 2.1
2018-Jun-20 21:30N 47°30' W 003°56'2 3.4
2018-Jun-20 21:00N 47°29' W 003°54'2 3.2
2018-Jun-20 20:30N 47°28' W 003°53'2 3.3
2018-Jun-20 20:00N 47°26' W 003°53'2 3.4
2018-Jun-20 19:30N 47°25' W 003°53'2 3.4
2018-Jun-20 19:00N 47°23' W 003°54'2 3.4
2018-Jun-20 18:28N 47°21' W 003°55'2 3.5
2018-Jun-20 17:56N 47°20' W 003°55'5 3.4
2018-Jun-20 16:21N 47°14' W 003°57'2 3.7
2018-Jun-20 15:53N 47°13' W 003°57'1 3.7
2018-Jun-20 15:29N 47°12' W 003°55'1 2.9
2018-Jun-20 15:00N 47°12' W 003°54'2 3.2
2018-Jun-20 14:30N 47°13' W 003°56'2 3.4
2018-Jun-20 13:58N 47°14' W 003°58'2 3.0
2018-Jun-20 13:20N 47°13' W 004°01'1 3.6
2018-Jun-20 13:00N 47°13' W 004°00'2 3.7
2018-Jun-20 12:30N 47°12' W 003°57'2 3.9
2018-Jun-20 11:59N 47°13' W 003°55'1 1.6
2018-Jun-20 11:26N 47°12' W 003°55'2 3.2
2018-Jun-20 10:54N 47°12' W 003°58'1 3.5
2018-Jun-20 10:29N 47°12' W 003°60'1 3.0
2018-Jun-20 10:00N 47°13' W 003°58'2 3.4
2018-Jun-20 09:28N 47°13' W 003°56'2 3.1
2018-Jun-20 08:59N 47°12' W 003°54'1 3.0
2018-Jun-20 08:30N 47°11' W 003°55'2 3.6
2018-Jun-20 07:59N 47°12' W 003°58'2 3.5
2018-Jun-20 07:27N 47°13' W 004°01'2 2.6
2018-Jun-20 06:50N 47°13' W 003°58'1 3.4
2018-Jun-20 06:28N 47°13' W 003°57'2 3.3
2018-Jun-20 06:00N 47°13' W 003°54'2 3.3
2018-Jun-20 05:30N 47°12' W 003°53'2 3.4
2018-Jun-20 05:00N 47°12' W 003°56'2 3.5
2018-Jun-20 04:30N 47°12' W 003°58'2 3.4
2018-Jun-20 03:57N 47°13' W 004°01'1 3.3
2018-Jun-20 03:30N 47°14' W 004°02'1 1.4
2018-Jun-20 02:57N 47°14' W 004°03'0 0.7
2018-Jun-20 02:28N 47°14' W 004°03'2 4.2
2018-Jun-20 02:00N 47°15' W 004°06'3 5.2
2018-Jun-20 01:30N 47°16' W 004°09'3 5.2
2018-Jun-20 01:00N 47°16' W 004°13'3 5.2
2018-Jun-20 00:30N 47°17' W 004°17'3 5.0
2018-Jun-19 23:58N 47°17' W 004°21'1 1.1
2018-Jun-19 23:01N 47°18' W 004°21'1 4.2
2018-Jun-19 22:52N 47°18' W 004°22'4 2.4
2018-Jun-19 21:20N 47°15' W 004°23'4 2.4
2018-Jun-19 19:36N 47°15' W 004°29'1 3.4
2018-Jun-19 19:19N 47°16' W 004°29'1 3.2
2018-Jun-19 19:00N 47°17' W 004°28'2 3.5
2018-Jun-19 18:30N 47°18' W 004°26'1 1.7
2018-Jun-19 17:59N 47°18' W 004°25'2 3.2
2018-Jun-19 17:28N 47°19' W 004°23'2 3.1
2018-Jun-19 16:57N 47°20' W 004°21'1 3.1
2018-Jun-19 16:30N 47°21' W 004°19'2 3.1
2018-Jun-19 16:00N 47°22' W 004°17'2 3.4
2018-Jun-19 15:23N 47°22' W 004°14'1 3.6
2018-Jun-19 15:00N 47°22' W 004°12'3 3.9
2018-Jun-19 14:13N 47°20' W 004°08'0 1.8
2018-Jun-19 14:00N 47°20' W 004°08'2 3.4
2018-Jun-19 13:25N 47°18' W 004°09'2 3.3
2018-Jun-19 12:57N 47°17' W 004°10'1 3.1
2018-Jun-19 12:30N 47°16' W 004°12'2 3.3
2018-Jun-19 11:57N 47°16' W 004°15'2 2.8
2018-Jun-19 11:22N 47°18' W 004°16'1 3.5
2018-Jun-19 10:58N 47°19' W 004°15'2 3.7
2018-Jun-19 10:30N 47°19' W 004°12'2 3.7
2018-Jun-19 10:00N 47°19' W 004°10'2 3.9
2018-Jun-19 09:30N 47°19' W 004°07'1 2.2
2018-Jun-19 08:58N 47°18' W 004°08'2 3.2
2018-Jun-19 08:28N 47°17' W 004°09'2 2.6
2018-Jun-19 07:41N 47°19' W 004°09'1 3.5
2018-Jun-19 07:29N 47°20' W 004°09'3 3.4
2018-Jun-19 06:41N 47°22' W 004°07'1 3.4
2018-Jun-19 06:29N 47°23' W 004°06'3 3.4
2018-Jun-19 05:42N 47°25' W 004°04'3 6.0
2018-Jun-19 05:11N 47°28' W 004°02'2 9.0
2018-Jun-19 04:58N 47°30' W 004°01'4 9.0
2018-Jun-19 04:30N 47°33' W 003°59'5 9.0
2018-Jun-19 03:58N 47°38' W 003°56'5 8.9
2018-Jun-19 03:25N 47°43' W 003°55'4 8.9
2018-Jun-19 03:00N 47°46' W 003°56'5 2.8
2018-Jun-19 01:14N 47°51' W 003°56'1 5.0
2018-Jun-19 00:57N 47°50' W 003°56'7 8.0
2018-Jun-19 00:09N 47°43' W 003°55'2 7.9
2018-Jun-18 23:55N 47°42' W 003°55'3 7.9
2018-Jun-18 23:29N 47°38' W 003°53'4 7.4
2018-Jun-18 22:59N 47°35' W 003°52'3 5.5
2018-Jun-18 22:25N 47°32' W 003°53'3 6.4
2018-Jun-18 22:00N 47°29' W 003°53'2 2.9
2018-Jun-18 21:29N 47°28' W 003°53'1 3.2
2018-Jun-18 21:00N 47°26' W 003°53'4 3.2
2018-Jun-18 19:38N 47°22' W 003°54'3 3.2
2018-Jun-18 18:39N 47°19' W 003°54'1 3.3
2018-Jun-18 18:27N 47°18' W 003°54'2 3.3
2018-Jun-18 17:57N 47°16' W 003°54'4 2.1
2018-Jun-18 15:56N 47°13' W 003°51'2 0.4
2018-Jun-18 11:38N 47°12' W 003°53'1 3.8
2018-Jun-18 11:25N 47°12' W 003°52'2 3.6
2018-Jun-18 10:46N 47°14' W 003°51'1 3.5
2018-Jun-18 10:28N 47°15' W 003°52'3 3.1
2018-Jun-18 09:31N 47°15' W 003°57'1 3.2
2018-Jun-18 09:15N 47°14' W 003°57'1 3.3
2018-Jun-18 08:57N 47°13' W 003°57'1 3.1
2018-Jun-18 08:29N 47°12' W 003°55'0 0.6
2018-Jun-18 08:00N 47°12' W 003°55'2 3.8
2018-Jun-18 07:29N 47°13' W 003°56'3 3.3
2018-Jun-18 06:40N 47°16' W 003°55'1 3.4
2018-Jun-18 06:19N 47°17' W 003°56'2 3.4
2018-Jun-18 05:51N 47°19' W 003°56'2 3.4
2018-Jun-18 05:22N 47°20' W 003°55'2 3.3
2018-Jun-18 04:50N 47°22' W 003°55'2 3.3
2018-Jun-18 04:15N 47°24' W 003°55'1 3.4
2018-Jun-18 03:58N 47°25' W 003°55'2 3.4
2018-Jun-18 03:26N 47°27' W 003°54'2 5.0
2018-Jun-18 03:00N 47°29' W 003°56'4 7.7
2018-Jun-18 02:27N 47°32' W 004°00'4 7.7
2018-Jun-18 01:57N 47°35' W 004°04'5 7.7
2018-Jun-18 01:16N 47°39' W 004°09'  
Track history (hours):
 
Tides and Currents Weather Stations Pressure Air Temp Water Temp Dewpoint Dewpoint Depression Visibility Wind Speed Wind Dir Waves Ship Positions

Caraibes II F/v

Last reported at 2018-Jun-25 13:57 UTC. Time now 2018-Jun-25 14:15 UTC.
Position N 47°25' W 003°47'.

Length 15 m.

Type: Fishing. MMSI: 228087900.

Date/timePositionNaut miles runAvg speedWind from/ knotsBaromVisibWave heightAir tempDewpointWater temp
2018-Jun-25 13:57N 47°25' W 003°47'2 3.2
2018-Jun-25 13:22N 47°26' W 003°48'1 3.2
2018-Jun-25 13:01N 47°26' W 003°47'2 3.4
2018-Jun-25 12:31N 47°26' W 003°44'1 2.5
2018-Jun-25 12:00N 47°25' W 003°43'1 3.0
2018-Jun-25 11:30N 47°26' W 003°44'2 3.5
2018-Jun-25 10:50N 47°26' W 003°48'1 3.4
2018-Jun-25 10:27N 47°26' W 003°50'1 3.2
2018-Jun-25 10:01N 47°25' W 003°49'2 3.5
2018-Jun-25 09:30N 47°25' W 003°46'2 3.5
2018-Jun-25 08:59N 47°25' W 003°43'1 3.0
2018-Jun-25 08:30N 47°26' W 003°45'1 2.7
2018-Jun-25 07:58N 47°26' W 003°47'2 3.3
2018-Jun-25 07:30N 47°27' W 003°49'1 2.4
2018-Jun-25 06:53N 47°28' W 003°51'2 3.7
2018-Jun-25 06:28N 47°29' W 003°49'2 3.6
2018-Jun-25 05:59N 47°31' W 003°48'1 2.9
2018-Jun-25 05:31N 47°32' W 003°47'2 3.6
2018-Jun-25 05:01N 47°33' W 003°46'2 3.5
2018-Jun-25 04:30N 47°34' W 003°43'2 3.4
2018-Jun-25 04:00N 47°35' W 003°42'2 3.8
2018-Jun-25 03:30N 47°37' W 003°43'4 7.9
2018-Jun-25 03:00N 47°39' W 003°48'4 8.3
2018-Jun-25 02:30N 47°41' W 003°53'4 8.5
2018-Jun-25 02:00N 47°45' W 003°57'4 8.6
2018-Jun-25 01:30N 47°48' W 004°02'5 0.1
2018-Jun-22 23:48N 47°51' W 003°56'1 1.0
2018-Jun-22 22:48N 47°50' W 003°56'10 8.5
2018-Jun-22 21:35N 47°42' W 003°47'1 8.3
2018-Jun-22 21:30N 47°41' W 003°47'4 8.3
2018-Jun-22 21:00N 47°38' W 003°43'2 4.0
2018-Jun-22 20:30N 47°36' W 003°42'2 3.6
2018-Jun-22 20:00N 47°34' W 003°42'2 3.6
2018-Jun-22 19:30N 47°34' W 003°45'1 2.9
2018-Jun-22 19:00N 47°32' W 003°46'2 3.4
2018-Jun-22 18:30N 47°31' W 003°47'2 3.3
2018-Jun-22 17:59N 47°30' W 003°49'2 3.5
2018-Jun-22 17:28N 47°29' W 003°51'2 3.3
2018-Jun-22 16:56N 47°28' W 003°49'1 3.0
2018-Jun-22 16:30N 47°29' W 003°48'2 2.8
2018-Jun-22 15:53N 47°29' W 003°51'1 2.8
2018-Jun-22 15:30N 47°28' W 003°50'2 3.4
2018-Jun-22 15:00N 47°28' W 003°48'1 2.9
2018-Jun-22 14:30N 47°29' W 003°49'2 2.9
2018-Jun-22 13:53N 47°28' W 003°51'1 3.4
2018-Jun-22 13:28N 47°27' W 003°52'3 0.6
2018-Jun-22 08:26N 47°24' W 003°53'1 2.5
2018-Jun-22 07:51N 47°25' W 003°52'1 2.9
2018-Jun-22 07:30N 47°26' W 003°51'2 3.3
2018-Jun-22 06:59N 47°27' W 003°53'2 3.3
2018-Jun-22 06:30N 47°29' W 003°54'2 3.3
2018-Jun-22 05:55N 47°30' W 003°56'1 3.2
2018-Jun-22 05:29N 47°31' W 003°58'1 3.1
2018-Jun-22 05:00N 47°32' W 003°60'4 3.3
2018-Jun-22 03:48N 47°35' W 004°03'8 8.0
2018-Jun-22 02:48N 47°41' W 004°11'8 7.9
2018-Jun-22 01:48N 47°47' W 004°17'23 3.8
2018-Jun-21 19:47N 47°30' W 003°55'3 3.2
2018-Jun-21 18:43N 47°27' W 003°51'1 3.6
2018-Jun-21 18:26N 47°26' W 003°51'1 3.4
2018-Jun-21 18:00N 47°25' W 003°50'2 3.4
2018-Jun-21 17:30N 47°24' W 003°49'1 1.8
2018-Jun-21 16:59N 47°23' W 003°49'2 3.4
2018-Jun-21 16:21N 47°23' W 003°53'2 1.5
2018-Jun-21 14:54N 47°25' W 003°52'1 0.4
2018-Jun-21 11:24N 47°24' W 003°51'1 3.4
2018-Jun-21 10:59N 47°25' W 003°52'2 3.1
2018-Jun-21 10:27N 47°26' W 003°53'2 3.3
2018-Jun-21 09:59N 47°25' W 003°55'2 3.4
2018-Jun-21 09:29N 47°23' W 003°54'2 3.2
2018-Jun-21 08:50N 47°22' W 003°57'2 3.0
2018-Jun-21 08:20N 47°20' W 003°58'1 2.3
2018-Jun-21 08:00N 47°20' W 003°58'2 3.4
2018-Jun-21 07:30N 47°18' W 003°58'2 2.6
2018-Jun-21 06:42N 47°18' W 003°55'1 3.3
2018-Jun-21 06:28N 47°19' W 003°55'2 3.3
2018-Jun-21 05:52N 47°21' W 003°55'1 3.4
2018-Jun-21 05:29N 47°22' W 003°55'2 3.4
2018-Jun-21 05:00N 47°24' W 003°55'2 3.5
2018-Jun-21 04:30N 47°25' W 003°55'2 3.5
2018-Jun-21 03:58N 47°27' W 003°54'2 3.6
2018-Jun-21 03:30N 47°28' W 003°52'1 2.1
2018-Jun-21 02:53N 47°29' W 003°51'1 3.3
2018-Jun-21 02:29N 47°30' W 003°53'2 3.4
2018-Jun-21 01:58N 47°31' W 003°56'2 3.3
2018-Jun-21 01:30N 47°31' W 003°58'2 3.3
2018-Jun-21 00:46N 47°31' W 004°01'1 3.3
2018-Jun-21 00:29N 47°31' W 004°03'2 3.4
2018-Jun-21 00:00N 47°31' W 004°05'1 2.9
2018-Jun-20 23:30N 47°29' W 004°04'2 3.3
2018-Jun-20 23:00N 47°29' W 004°02'2 3.3
2018-Jun-20 22:30N 47°30' W 003°60'2 3.4
2018-Jun-20 22:00N 47°31' W 003°58'1 2.1
2018-Jun-20 21:30N 47°30' W 003°56'2 3.4
2018-Jun-20 21:00N 47°29' W 003°54'2 3.2
2018-Jun-20 20:30N 47°28' W 003°53'2 3.3
2018-Jun-20 20:00N 47°26' W 003°53'2 3.4
2018-Jun-20 19:30N 47°25' W 003°53'2 3.4
2018-Jun-20 19:00N 47°23' W 003°54'2 3.4
2018-Jun-20 18:28N 47°21' W 003°55'2 3.5
2018-Jun-20 17:56N 47°20' W 003°55'5 3.4
2018-Jun-20 16:21N 47°14' W 003°57'2 3.7
2018-Jun-20 15:53N 47°13' W 003°57'1 3.7
2018-Jun-20 15:29N 47°12' W 003°55'1 2.9
2018-Jun-20 15:00N 47°12' W 003°54'2 3.2
2018-Jun-20 14:30N 47°13' W 003°56'2 3.4
2018-Jun-20 13:58N 47°14' W 003°58'2 3.0
2018-Jun-20 13:20N 47°13' W 004°01'1 3.6
2018-Jun-20 13:00N 47°13' W 004°00'2 3.7
2018-Jun-20 12:30N 47°12' W 003°57'2 3.9
2018-Jun-20 11:59N 47°13' W 003°55'1 1.6
2018-Jun-20 11:26N 47°12' W 003°55'2 3.2
2018-Jun-20 10:54N 47°12' W 003°58'1 3.5
2018-Jun-20 10:29N 47°12' W 003°60'1 3.0
2018-Jun-20 10:00N 47°13' W 003°58'2 3.4
2018-Jun-20 09:28N 47°13' W 003°56'2 3.1
2018-Jun-20 08:59N 47°12' W 003°54'1 3.0
2018-Jun-20 08:30N 47°11' W 003°55'2 3.6
2018-Jun-20 07:59N 47°12' W 003°58'2 3.5
2018-Jun-20 07:27N 47°13' W 004°01'2 2.6
2018-Jun-20 06:50N 47°13' W 003°58'1 3.4
2018-Jun-20 06:28N 47°13' W 003°57'2 3.3
2018-Jun-20 06:00N 47°13' W 003°54'2 3.3
2018-Jun-20 05:30N 47°12' W 003°53'2 3.4
2018-Jun-20 05:00N 47°12' W 003°56'2 3.5
2018-Jun-20 04:30N 47°12' W 003°58'2 3.4
2018-Jun-20 03:57N 47°13' W 004°01'1 3.3
2018-Jun-20 03:30N 47°14' W 004°02'1 1.4
2018-Jun-20 02:57N 47°14' W 004°03'0 0.7
2018-Jun-20 02:28N 47°14' W 004°03'2 4.2
2018-Jun-20 02:00N 47°15' W 004°06'3 5.2
2018-Jun-20 01:30N 47°16' W 004°09'3 5.2
2018-Jun-20 01:00N 47°16' W 004°13'3 5.2
2018-Jun-20 00:30N 47°17' W 004°17'3 5.0
2018-Jun-19 23:58N 47°17' W 004°21'1 1.1
2018-Jun-19 23:01N 47°18' W 004°21'1 4.2
2018-Jun-19 22:52N 47°18' W 004°22'4 2.4
2018-Jun-19 21:20N 47°15' W 004°23'4 2.4
2018-Jun-19 19:36N 47°15' W 004°29'1 3.4
2018-Jun-19 19:19N 47°16' W 004°29'1 3.2
2018-Jun-19 19:00N 47°17' W 004°28'2 3.5
2018-Jun-19 18:30N 47°18' W 004°26'1 1.7
2018-Jun-19 17:59N 47°18' W 004°25'2 3.2
2018-Jun-19 17:28N 47°19' W 004°23'2 3.1
2018-Jun-19 16:57N 47°20' W 004°21'1 3.1
2018-Jun-19 16:30N 47°21' W 004°19'2 3.1
2018-Jun-19 16:00N 47°22' W 004°17'2 3.4
2018-Jun-19 15:23N 47°22' W 004°14'1 3.6
2018-Jun-19 15:00N 47°22' W 004°12'3 3.9
2018-Jun-19 14:13N 47°20' W 004°08'0 1.8
2018-Jun-19 14:00N 47°20' W 004°08'2 3.4
2018-Jun-19 13:25N 47°18' W 004°09'2 3.3
2018-Jun-19 12:57N 47°17' W 004°10'1 3.1
2018-Jun-19 12:30N 47°16' W 004°12'2 3.3
2018-Jun-19 11:57N 47°16' W 004°15'2 2.8
2018-Jun-19 11:22N 47°18' W 004°16'1 3.5
2018-Jun-19 10:58N 47°19' W 004°15'2 3.7
2018-Jun-19 10:30N 47°19' W 004°12'2 3.7
2018-Jun-19 10:00N 47°19' W 004°10'2 3.9
2018-Jun-19 09:30N 47°19' W 004°07'1 2.2
2018-Jun-19 08:58N 47°18' W 004°08'2 3.2
2018-Jun-19 08:28N 47°17' W 004°09'2 2.6
2018-Jun-19 07:41N 47°19' W 004°09'1 3.5
2018-Jun-19 07:29N 47°20' W 004°09'3 3.4
2018-Jun-19 06:41N 47°22' W 004°07'1 3.4
2018-Jun-19 06:29N 47°23' W 004°06'3 3.4
2018-Jun-19 05:42N 47°25' W 004°04'3 6.0
2018-Jun-19 05:11N 47°28' W 004°02'2 9.0
2018-Jun-19 04:58N 47°30' W 004°01'4 9.0
2018-Jun-19 04:30N 47°33' W 003°59'5 9.0
2018-Jun-19 03:58N 47°38' W 003°56'5 8.9
2018-Jun-19 03:25N 47°43' W 003°55'4 8.9
2018-Jun-19 03:00N 47°46' W 003°56'5 2.8
2018-Jun-19 01:14N 47°51' W 003°56'1 5.0
2018-Jun-19 00:57N 47°50' W 003°56'7 8.0
2018-Jun-19 00:09N 47°43' W 003°55'2 7.9
2018-Jun-18 23:55N 47°42' W 003°55'3 7.9
2018-Jun-18 23:29N 47°38' W 003°53'4 7.4
2018-Jun-18 22:59N 47°35' W 003°52'3 5.5
2018-Jun-18 22:25N 47°32' W 003°53'3 6.4
2018-Jun-18 22:00N 47°29' W 003°53'2 2.9
2018-Jun-18 21:29N 47°28' W 003°53'1 3.2
2018-Jun-18 21:00N 47°26' W 003°53'4 3.2
2018-Jun-18 19:38N 47°22' W 003°54'3 3.2
2018-Jun-18 18:39N 47°19' W 003°54'1 3.3
2018-Jun-18 18:27N 47°18' W 003°54'2 3.3
2018-Jun-18 17:57N 47°16' W 003°54'4 2.1
2018-Jun-18 15:56N 47°13' W 003°51'2 0.4
2018-Jun-18 11:38N 47°12' W 003°53'1 3.8
2018-Jun-18 11:25N 47°12' W 003°52'2 3.6
2018-Jun-18 10:46N 47°14' W 003°51'1 3.5
2018-Jun-18 10:28N 47°15' W 003°52'3 3.1
2018-Jun-18 09:31N 47°15' W 003°57'1 3.2
2018-Jun-18 09:15N 47°14' W 003°57'1 3.3
2018-Jun-18 08:57N 47°13' W 003°57'1 3.1
2018-Jun-18 08:29N 47°12' W 003°55'0 0.6
2018-Jun-18 08:00N 47°12' W 003°55'2 3.8
2018-Jun-18 07:29N 47°13' W 003°56'3 3.3
2018-Jun-18 06:40N 47°16' W 003°55'1 3.4
2018-Jun-18 06:19N 47°17' W 003°56'2 3.4
2018-Jun-18 05:51N 47°19' W 003°56'2 3.4
2018-Jun-18 05:22N 47°20' W 003°55'2 3.3
2018-Jun-18 04:50N 47°22' W 003°55'2 3.3
2018-Jun-18 04:15N 47°24' W 003°55'1 3.4
2018-Jun-18 03:58N 47°25' W 003°55'2 3.4
2018-Jun-18 03:26N 47°27' W 003°54'2 5.0
2018-Jun-18 03:00N 47°29' W 003°56'4 7.7
2018-Jun-18 02:27N 47°32' W 004°00'4 7.7
2018-Jun-18 01:57N 47°35' W 004°04'5 7.7
2018-Jun-18 01:16N 47°39' W 004°09'  

Dump ship's entire track history